sensor_id;sensor_type;location;lat;lon;timestamp;temperature;humidity
30534;DHT22;17318;52.390;9.754;2022-11-12T00:00:44;10.90;94.80
30534;DHT22;17318;52.390;9.754;2022-11-12T00:03:10;11.00;94.90
30534;DHT22;17318;52.390;9.754;2022-11-12T00:05:36;10.90;94.80
30534;DHT22;17318;52.390;9.754;2022-11-12T00:08:02;11.00;94.60
30534;DHT22;17318;52.390;9.754;2022-11-12T00:10:29;11.00;94.60
30534;DHT22;17318;52.390;9.754;2022-11-12T00:12:56;11.00;94.60
30534;DHT22;17318;52.390;9.754;2022-11-12T00:15:21;11.00;94.60
30534;DHT22;17318;52.390;9.754;2022-11-12T00:17:47;11.10;94.40
30534;DHT22;17318;52.390;9.754;2022-11-12T00:20:13;11.10;94.50
30534;DHT22;17318;52.390;9.754;2022-11-12T00:22:38;11.00;94.50
30534;DHT22;17318;52.390;9.754;2022-11-12T00:25:04;11.00;94.50
30534;DHT22;17318;52.390;9.754;2022-11-12T00:27:34;11.00;94.50
30534;DHT22;17318;52.390;9.754;2022-11-12T00:30:00;11.00;94.60
30534;DHT22;17318;52.390;9.754;2022-11-12T00:32:26;11.10;94.60
30534;DHT22;17318;52.390;9.754;2022-11-12T00:34:52;11.00;94.60
30534;DHT22;17318;52.390;9.754;2022-11-12T00:37:18;11.00;94.70
30534;DHT22;17318;52.390;9.754;2022-11-12T00:39:45;10.90;94.80
30534;DHT22;17318;52.390;9.754;2022-11-12T00:42:10;10.80;94.90
30534;DHT22;17318;52.390;9.754;2022-11-12T00:44:36;10.70;95.00
30534;DHT22;17318;52.390;9.754;2022-11-12T00:47:02;10.70;95.00
30534;DHT22;17318;52.390;9.754;2022-11-12T00:49:28;10.70;95.00
30534;DHT22;17318;52.390;9.754;2022-11-12T00:51:53;10.60;95.00
30534;DHT22;17318;52.390;9.754;2022-11-12T00:54:19;10.60;95.20
30534;DHT22;17318;52.390;9.754;2022-11-12T00:56:45;10.60;95.30
30534;DHT22;17318;52.390;9.754;2022-11-12T00:59:12;10.50;95.20
30534;DHT22;17318;52.390;9.754;2022-11-12T01:01:38;10.50;95.20
30534;DHT22;17318;52.390;9.754;2022-11-12T01:04:04;10.60;95.10
30534;DHT22;17318;52.390;9.754;2022-11-12T01:06:30;10.60;95.00
30534;DHT22;17318;52.390;9.754;2022-11-12T01:08:56;10.60;94.80
30534;DHT22;17318;52.390;9.754;2022-11-12T01:11:25;10.60;94.90
30534;DHT22;17318;52.390;9.754;2022-11-12T01:14:05;10.70;94.70
30534;DHT22;17318;52.390;9.754;2022-11-12T01:16:37;10.70;94.70
30534;DHT22;17318;52.390;9.754;2022-11-12T01:19:06;10.70;94.70
30534;DHT22;17318;52.390;9.754;2022-11-12T01:21:35;10.70;95.00
30534;DHT22;17318;52.390;9.754;2022-11-12T01:24:01;10.70;94.90
30534;DHT22;17318;52.390;9.754;2022-11-12T01:26:27;10.60;94.60
30534;DHT22;17318;52.390;9.754;2022-11-12T01:28:53;10.60;94.90
30534;DHT22;17318;52.390;9.754;2022-11-12T01:31:25;10.70;94.90
30534;DHT22;17318;52.390;9.754;2022-11-12T01:33:54;10.70;94.90
30534;DHT22;17318;52.390;9.754;2022-11-12T01:36:20;10.70;94.80
30534;DHT22;17318;52.390;9.754;2022-11-12T01:38:47;10.70;94.90
30534;DHT22;17318;52.390;9.754;2022-11-12T01:41:16;10.70;94.80
30534;DHT22;17318;52.390;9.754;2022-11-12T01:43:43;10.60;94.70
30534;DHT22;17318;52.390;9.754;2022-11-12T01:46:27;10.70;94.70
30534;DHT22;17318;52.390;9.754;2022-11-12T01:48:58;10.70;94.80
30534;DHT22;17318;52.390;9.754;2022-11-12T01:51:29;10.60;94.90
30534;DHT22;17318;52.390;9.754;2022-11-12T01:53:59;10.60;95.00
30534;DHT22;17318;52.390;9.754;2022-11-12T01:56:28;10.60;95.00
30534;DHT22;17318;52.390;9.754;2022-11-12T01:58:59;10.60;95.00
30534;DHT22;17318;52.390;9.754;2022-11-12T02:01:26;10.60;95.10
30534;DHT22;17318;52.390;9.754;2022-11-12T02:03:51;10.60;95.30
30534;DHT22;17318;52.390;9.754;2022-11-12T02:06:18;10.50;95.00
30534;DHT22;17318;52.390;9.754;2022-11-12T02:08:45;10.60;95.10
30534;DHT22;17318;52.390;9.754;2022-11-12T02:11:16;10.50;95.00
30534;DHT22;17318;52.390;9.754;2022-11-12T02:13:43;10.50;95.10
30534;DHT22;17318;52.390;9.754;2022-11-12T02:16:39;10.50;95.10
30534;DHT22;17318;52.390;9.754;2022-11-12T02:19:08;10.50;95.00
30534;DHT22;17318;52.390;9.754;2022-11-12T02:21:35;10.50;95.00
30534;DHT22;17318;52.390;9.754;2022-11-12T02:26:52;10.60;94.90
30534;DHT22;17318;52.390;9.754;2022-11-12T02:29:18;10.60;95.00
30534;DHT22;17318;52.390;9.754;2022-11-12T02:31:44;10.60;95.00
30534;DHT22;17318;52.390;9.754;2022-11-12T02:34:09;10.60;94.80
30534;DHT22;17318;52.390;9.754;2022-11-12T02:36:35;10.60;95.00
30534;DHT22;17318;52.390;9.754;2022-11-12T02:39:01;10.60;95.10
30534;DHT22;17318;52.390;9.754;2022-11-12T02:41:26;10.60;95.10
30534;DHT22;17318;52.390;9.754;2022-11-12T02:43:52;10.60;95.10
30534;DHT22;17318;52.390;9.754;2022-11-12T02:46:18;10.60;94.90
30534;DHT22;17318;52.390;9.754;2022-11-12T02:48:43;10.50;95.00
30534;DHT22;17318;52.390;9.754;2022-11-12T02:51:09;10.50;95.00
30534;DHT22;17318;52.390;9.754;2022-11-12T02:53:35;10.50;95.30
30534;DHT22;17318;52.390;9.754;2022-11-12T02:56:01;10.40;95.40
30534;DHT22;17318;52.390;9.754;2022-11-12T02:58:27;10.40;95.50
30534;DHT22;17318;52.390;9.754;2022-11-12T03:00:55;10.40;95.40
30534;DHT22;17318;52.390;9.754;2022-11-12T03:03:21;10.40;95.60
30534;DHT22;17318;52.390;9.754;2022-11-12T03:05:58;10.40;95.50
30534;DHT22;17318;52.390;9.754;2022-11-12T03:08:24;10.30;95.60
30534;DHT22;17318;52.390;9.754;2022-11-12T03:10:50;10.30;95.60
30534;DHT22;17318;52.390;9.754;2022-11-12T03:13:16;10.20;95.70
30534;DHT22;17318;52.390;9.754;2022-11-12T03:15:42;10.20;95.70
30534;DHT22;17318;52.390;9.754;2022-11-12T03:18:07;10.20;95.80
30534;DHT22;17318;52.390;9.754;2022-11-12T03:20:33;10.20;95.70
30534;DHT22;17318;52.390;9.754;2022-11-12T03:23:07;10.20;95.90
30534;DHT22;17318;52.390;9.754;2022-11-12T03:25:34;10.20;95.80
30534;DHT22;17318;52.390;9.754;2022-11-12T03:28:03;10.20;95.90
30534;DHT22;17318;52.390;9.754;2022-11-12T03:30:32;10.20;95.80
30534;DHT22;17318;52.390;9.754;2022-11-12T03:32:57;10.20;95.70
30534;DHT22;17318;52.390;9.754;2022-11-12T03:35:23;10.20;95.90
30534;DHT22;17318;52.390;9.754;2022-11-12T03:37:51;10.20;96.00
30534;DHT22;17318;52.390;9.754;2022-11-12T03:40:17;10.10;96.00
30534;DHT22;17318;52.390;9.754;2022-11-12T03:42:47;10.10;96.10
30534;DHT22;17318;52.390;9.754;2022-11-12T03:45:14;10.00;96.20
30534;DHT22;17318;52.390;9.754;2022-11-12T03:47:44;10.00;96.20
30534;DHT22;17318;52.390;9.754;2022-11-12T03:50:11;10.10;96.20
30534;DHT22;17318;52.390;9.754;2022-11-12T03:52:38;10.10;96.20
30534;DHT22;17318;52.390;9.754;2022-11-12T03:55:05;10.10;96.10
30534;DHT22;17318;52.390;9.754;2022-11-12T03:57:30;10.00;96.10
30534;DHT22;17318;52.390;9.754;2022-11-12T03:59:56;10.00;96.20
30534;DHT22;17318;52.390;9.754;2022-11-12T04:02:22;10.00;96.20
30534;DHT22;17318;52.390;9.754;2022-11-12T04:04:49;10.00;96.10
30534;DHT22;17318;52.390;9.754;2022-11-12T04:07:34;10.00;96.10
30534;DHT22;17318;52.390;9.754;2022-11-12T04:10:18;10.10;96.10
30534;DHT22;17318;52.390;9.754;2022-11-12T04:12:44;10.00;96.10
30534;DHT22;17318;52.390;9.754;2022-11-12T04:15:28;10.00;96.20
30534;DHT22;17318;52.390;9.754;2022-11-12T04:17:54;10.10;96.20
30534;DHT22;17318;52.390;9.754;2022-11-12T04:20:38;10.00;96.30
30534;DHT22;17318;52.390;9.754;2022-11-12T04:23:30;10.10;96.20
30534;DHT22;17318;52.390;9.754;2022-11-12T04:25:56;10.00;96.20
30534;DHT22;17318;52.390;9.754;2022-11-12T04:28:40;10.00;96.30
30534;DHT22;17318;52.390;9.754;2022-11-12T04:31:26;10.00;96.30
30534;DHT22;17318;52.390;9.754;2022-11-12T04:33:51;10.00;96.50
30534;DHT22;17318;52.390;9.754;2022-11-12T04:36:17;9.90;97.00
30534;DHT22;17318;52.390;9.754;2022-11-12T04:38:43;9.90;96.90
30534;DHT22;17318;52.390;9.754;2022-11-12T04:41:08;9.90;96.90
30534;DHT22;17318;52.390;9.754;2022-11-12T04:43:52;9.90;97.00
30534;DHT22;17318;52.390;9.754;2022-11-12T04:46:36;9.90;97.00
30534;DHT22;17318;52.390;9.754;2022-11-12T04:49:02;9.90;97.00
30534;DHT22;17318;52.390;9.754;2022-11-12T04:51:28;9.90;97.00
30534;DHT22;17318;52.390;9.754;2022-11-12T04:54:12;9.90;97.10
30534;DHT22;17318;52.390;9.754;2022-11-12T04:56:37;9.90;96.90
30534;DHT22;17318;52.390;9.754;2022-11-12T04:59:03;9.90;97.00
30534;DHT22;17318;52.390;9.754;2022-11-12T05:01:29;9.90;97.10
30534;DHT22;17318;52.390;9.754;2022-11-12T05:03:54;9.90;97.00
30534;DHT22;17318;52.390;9.754;2022-11-12T05:06:20;9.80;97.10
30534;DHT22;17318;52.390;9.754;2022-11-12T05:09:04;9.90;97.30
30534;DHT22;17318;52.390;9.754;2022-11-12T05:11:30;9.70;97.20
30534;DHT22;17318;52.390;9.754;2022-11-12T05:13:56;9.70;97.20
30534;DHT22;17318;52.390;9.754;2022-11-12T05:16:21;9.70;97.30
30534;DHT22;17318;52.390;9.754;2022-11-12T05:18:47;9.70;97.30
30534;DHT22;17318;52.390;9.754;2022-11-12T05:21:12;9.60;97.40
30534;DHT22;17318;52.390;9.754;2022-11-12T05:23:57;9.70;97.30
30534;DHT22;17318;52.390;9.754;2022-11-12T05:26:22;9.60;97.40
30534;DHT22;17318;52.390;9.754;2022-11-12T05:28:48;9.60;97.40
30534;DHT22;17318;52.390;9.754;2022-11-12T05:31:14;9.60;97.40
30534;DHT22;17318;52.390;9.754;2022-11-12T05:33:39;9.50;97.60
30534;DHT22;17318;52.390;9.754;2022-11-12T05:36:05;9.50;97.50
30534;DHT22;17318;52.390;9.754;2022-11-12T05:38:31;9.50;97.60
30534;DHT22;17318;52.390;9.754;2022-11-12T05:40:56;9.50;97.50
30534;DHT22;17318;52.390;9.754;2022-11-12T05:43:22;9.50;97.50
30534;DHT22;17318;52.390;9.754;2022-11-12T05:45:48;9.50;97.60
30534;DHT22;17318;52.390;9.754;2022-11-12T05:48:13;9.50;97.40
30534;DHT22;17318;52.390;9.754;2022-11-12T05:50:39;9.50;97.50
30534;DHT22;17318;52.390;9.754;2022-11-12T05:53:05;9.50;97.40
30534;DHT22;17318;52.390;9.754;2022-11-12T05:55:30;9.50;97.50
30534;DHT22;17318;52.390;9.754;2022-11-12T05:57:56;9.50;97.50
30534;DHT22;17318;52.390;9.754;2022-11-12T06:00:22;9.50;97.50
30534;DHT22;17318;52.390;9.754;2022-11-12T06:02:47;9.50;97.60
30534;DHT22;17318;52.390;9.754;2022-11-12T06:05:13;9.50;97.70
30534;DHT22;17318;52.390;9.754;2022-11-12T06:07:39;9.50;97.70
30534;DHT22;17318;52.390;9.754;2022-11-12T06:10:05;9.50;97.50
30534;DHT22;17318;52.390;9.754;2022-11-12T06:12:31;9.50;97.50
30534;DHT22;17318;52.390;9.754;2022-11-12T06:14:57;9.60;97.50
30534;DHT22;17318;52.390;9.754;2022-11-12T06:17:22;9.50;97.60
30534;DHT22;17318;52.390;9.754;2022-11-12T06:19:48;9.50;97.50
30534;DHT22;17318;52.390;9.754;2022-11-12T06:22:14;9.50;97.70
30534;DHT22;17318;52.390;9.754;2022-11-12T06:24:39;9.50;97.70
30534;DHT22;17318;52.390;9.754;2022-11-12T06:27:05;9.40;97.70
30534;DHT22;17318;52.390;9.754;2022-11-12T06:29:30;9.50;97.80
30534;DHT22;17318;52.390;9.754;2022-11-12T06:31:56;9.40;97.70
30534;DHT22;17318;52.390;9.754;2022-11-12T06:34:22;9.40;97.70
30534;DHT22;17318;52.390;9.754;2022-11-12T06:36:47;9.40;97.80
30534;DHT22;17318;52.390;9.754;2022-11-12T06:39:13;9.40;97.90
30534;DHT22;17318;52.390;9.754;2022-11-12T06:41:39;9.40;98.10
30534;DHT22;17318;52.390;9.754;2022-11-12T06:44:05;9.40;97.80
30534;DHT22;17318;52.390;9.754;2022-11-12T06:46:31;9.40;97.90
30534;DHT22;17318;52.390;9.754;2022-11-12T06:48:56;9.40;98.00
30534;DHT22;17318;52.390;9.754;2022-11-12T06:51:22;9.40;97.90
30534;DHT22;17318;52.390;9.754;2022-11-12T06:53:48;9.40;97.80
30534;DHT22;17318;52.390;9.754;2022-11-12T06:56:14;9.40;97.90
30534;DHT22;17318;52.390;9.754;2022-11-12T06:58:40;9.50;97.90
30534;DHT22;17318;52.390;9.754;2022-11-12T07:01:12;9.40;97.80
30534;DHT22;17318;52.390;9.754;2022-11-12T07:03:38;9.50;98.00
30534;DHT22;17318;52.390;9.754;2022-11-12T07:06:07;9.50;98.00
30534;DHT22;17318;52.390;9.754;2022-11-12T07:08:33;9.50;97.80
30534;DHT22;17318;52.390;9.754;2022-11-12T07:10:59;9.60;97.90
30534;DHT22;17318;52.390;9.754;2022-11-12T07:13:25;9.60;97.90
30534;DHT22;17318;52.390;9.754;2022-11-12T07:15:50;9.60;97.90
30534;DHT22;17318;52.390;9.754;2022-11-12T07:18:16;9.50;97.90
30534;DHT22;17318;52.390;9.754;2022-11-12T07:20:42;9.50;98.00
30534;DHT22;17318;52.390;9.754;2022-11-12T07:23:07;9.60;98.00
30534;DHT22;17318;52.390;9.754;2022-11-12T07:25:33;9.60;98.00
30534;DHT22;17318;52.390;9.754;2022-11-12T07:27:58;9.60;98.00
30534;DHT22;17318;52.390;9.754;2022-11-12T07:30:24;9.60;98.00
30534;DHT22;17318;52.390;9.754;2022-11-12T07:32:50;9.70;97.90
30534;DHT22;17318;52.390;9.754;2022-11-12T07:35:16;9.70;97.90
30534;DHT22;17318;52.390;9.754;2022-11-12T07:37:42;9.80;97.90
30534;DHT22;17318;52.390;9.754;2022-11-12T07:40:08;9.80;98.00
30534;DHT22;17318;52.390;9.754;2022-11-12T07:42:34;9.80;97.90
30534;DHT22;17318;52.390;9.754;2022-11-12T07:45:00;9.90;97.90
30534;DHT22;17318;52.390;9.754;2022-11-12T07:47:26;10.00;97.40
30534;DHT22;17318;52.390;9.754;2022-11-12T07:49:51;10.00;97.30
30534;DHT22;17318;52.390;9.754;2022-11-12T07:52:17;10.10;97.30
30534;DHT22;17318;52.390;9.754;2022-11-12T07:54:43;10.20;97.30
30534;DHT22;17318;52.390;9.754;2022-11-12T07:57:08;10.30;97.20
30534;DHT22;17318;52.390;9.754;2022-11-12T07:59:34;10.40;97.20
30534;DHT22;17318;52.390;9.754;2022-11-12T08:01:59;10.40;97.20
30534;DHT22;17318;52.390;9.754;2022-11-12T08:04:25;10.50;97.20
30534;DHT22;17318;52.390;9.754;2022-11-12T08:06:51;10.50;97.20
30534;DHT22;17318;52.390;9.754;2022-11-12T08:09:17;10.60;97.20
30534;DHT22;17318;52.390;9.754;2022-11-12T08:11:42;10.80;97.10
30534;DHT22;17318;52.390;9.754;2022-11-12T08:14:08;10.90;97.10
30534;DHT22;17318;52.390;9.754;2022-11-12T08:16:34;11.10;97.20
30534;DHT22;17318;52.390;9.754;2022-11-12T08:19:00;11.30;97.10
30534;DHT22;17318;52.390;9.754;2022-11-12T08:21:25;11.40;96.80
30534;DHT22;17318;52.390;9.754;2022-11-12T08:23:52;11.50;96.60
30534;DHT22;17318;52.390;9.754;2022-11-12T08:26:19;11.60;96.50
30534;DHT22;17318;52.390;9.754;2022-11-12T08:28:45;11.70;96.30
30534;DHT22;17318;52.390;9.754;2022-11-12T08:31:13;11.80;96.20
30534;DHT22;17318;52.390;9.754;2022-11-12T08:33:40;11.90;96.10
30534;DHT22;17318;52.390;9.754;2022-11-12T08:36:08;12.00;95.90
30534;DHT22;17318;52.390;9.754;2022-11-12T08:38:34;12.10;95.80
30534;DHT22;17318;52.390;9.754;2022-11-12T08:41:01;12.30;95.80
30534;DHT22;17318;52.390;9.754;2022-11-12T08:43:27;12.40;95.70
30534;DHT22;17318;52.390;9.754;2022-11-12T08:45:53;12.50;95.60
30534;DHT22;17318;52.390;9.754;2022-11-12T08:48:19;12.50;95.50
30534;DHT22;17318;52.390;9.754;2022-11-12T08:50:44;12.60;95.50
30534;DHT22;17318;52.390;9.754;2022-11-12T08:53:12;12.70;95.30
30534;DHT22;17318;52.390;9.754;2022-11-12T08:55:38;12.80;95.00
30534;DHT22;17318;52.390;9.754;2022-11-12T08:58:05;12.90;95.00
30534;DHT22;17318;52.390;9.754;2022-11-12T09:00:37;13.00;95.00
30534;DHT22;17318;52.390;9.754;2022-11-12T09:03:05;13.00;94.80
30534;DHT22;17318;52.390;9.754;2022-11-12T09:05:31;13.10;94.70
30534;DHT22;17318;52.390;9.754;2022-11-12T09:08:04;13.10;94.50
30534;DHT22;17318;52.390;9.754;2022-11-12T09:10:31;13.20;95.00
30534;DHT22;17318;52.390;9.754;2022-11-12T09:12:57;13.30;94.60
30534;DHT22;17318;52.390;9.754;2022-11-12T09:15:24;13.40;94.60
30534;DHT22;17318;52.390;9.754;2022-11-12T09:18:01;13.50;94.70
30534;DHT22;17318;52.390;9.754;2022-11-12T09:20:28;13.60;94.50
30534;DHT22;17318;52.390;9.754;2022-11-12T09:22:58;13.70;94.40
30534;DHT22;17318;52.390;9.754;2022-11-12T09:25:24;13.80;94.00
30534;DHT22;17318;52.390;9.754;2022-11-12T09:27:50;13.80;94.10
30534;DHT22;17318;52.390;9.754;2022-11-12T09:30:15;13.90;94.00
30534;DHT22;17318;52.390;9.754;2022-11-12T09:32:41;14.00;93.90
30534;DHT22;17318;52.390;9.754;2022-11-12T09:35:07;14.10;94.00
30534;DHT22;17318;52.390;9.754;2022-11-12T09:37:33;14.10;93.90
30534;DHT22;17318;52.390;9.754;2022-11-12T09:40:01;14.10;93.70
30534;DHT22;17318;52.390;9.754;2022-11-12T09:42:26;14.20;93.70
30534;DHT22;17318;52.390;9.754;2022-11-12T09:45:27;14.30;93.60
30534;DHT22;17318;52.390;9.754;2022-11-12T09:48:04;14.30;93.60
30534;DHT22;17318;52.390;9.754;2022-11-12T09:50:38;14.30;93.40
30534;DHT22;17318;52.390;9.754;2022-11-12T09:53:47;14.30;93.50
30534;DHT22;17318;52.390;9.754;2022-11-12T09:56:18;14.30;93.40
30534;DHT22;17318;52.390;9.754;2022-11-12T09:58:44;14.30;93.30
30534;DHT22;17318;52.390;9.754;2022-11-12T10:07:00;14.50;93.20
30534;DHT22;17318;52.390;9.754;2022-11-12T10:09:52;14.60;93.40
30534;DHT22;17318;52.390;9.754;2022-11-12T10:19:31;14.90;92.90
30534;DHT22;17318;52.390;9.754;2022-11-12T10:21:33;15.00;92.90
30534;DHT22;17318;52.390;9.754;2022-11-12T10:24:00;15.00;92.70
30534;DHT22;17318;52.390;9.754;2022-11-12T10:26:28;15.10;92.30
30534;DHT22;17318;52.390;9.754;2022-11-12T10:31:47;15.30;92.40
30534;DHT22;17318;52.390;9.754;2022-11-12T10:36:42;15.50;92.10
30534;DHT22;17318;52.390;9.754;2022-11-12T10:39:09;15.60;91.90
30534;DHT22;17318;52.390;9.754;2022-11-12T10:41:35;15.70;92.10
30534;DHT22;17318;52.390;9.754;2022-11-12T10:44:03;15.70;91.90
30534;DHT22;17318;52.390;9.754;2022-11-12T10:46:35;15.60;91.70
30534;DHT22;17318;52.390;9.754;2022-11-12T10:49:03;15.70;91.80
30534;DHT22;17318;52.390;9.754;2022-11-12T10:51:32;15.70;91.70
30534;DHT22;17318;52.390;9.754;2022-11-12T10:53:58;15.80;91.70
30534;DHT22;17318;52.390;9.754;2022-11-12T10:56:29;15.90;91.70
30534;DHT22;17318;52.390;9.754;2022-11-12T10:59:29;16.10;91.50
30534;DHT22;17318;52.390;9.754;2022-11-12T11:01:59;16.30;91.40
30534;DHT22;17318;52.390;9.754;2022-11-12T11:04:33;16.40;91.40
30534;DHT22;17318;52.390;9.754;2022-11-12T11:09:27;16.50;90.60
30534;DHT22;17318;52.390;9.754;2022-11-12T11:11:53;16.70;91.10
30534;DHT22;17318;52.390;9.754;2022-11-12T11:14:23;16.70;90.80
30534;DHT22;17318;52.390;9.754;2022-11-12T11:16:54;16.70;90.80
30534;DHT22;17318;52.390;9.754;2022-11-12T11:19:21;16.70;90.60
30534;DHT22;17318;52.390;9.754;2022-11-12T11:30:07;16.60;90.30
30534;DHT22;17318;52.390;9.754;2022-11-12T11:32:49;16.50;90.20
30534;DHT22;17318;52.390;9.754;2022-11-12T11:40:28;16.60;90.50
30534;DHT22;17318;52.390;9.754;2022-11-12T11:56:54;16.60;90.30
30534;DHT22;17318;52.390;9.754;2022-11-12T12:09:59;16.60;90.60
30534;DHT22;17318;52.390;9.754;2022-11-12T12:12:31;16.50;90.70
30534;DHT22;17318;52.390;9.754;2022-11-12T12:15:34;16.60;90.70
30534;DHT22;17318;52.390;9.754;2022-11-12T12:21:22;16.60;90.50
30534;DHT22;17318;52.390;9.754;2022-11-12T12:26:43;16.60;90.70
30534;DHT22;17318;52.390;9.754;2022-11-12T12:32:13;16.50;90.60
30534;DHT22;17318;52.390;9.754;2022-11-12T12:34:43;16.50;90.70
30534;DHT22;17318;52.390;9.754;2022-11-12T12:37:34;16.50;90.70
30534;DHT22;17318;52.390;9.754;2022-11-12T12:40:30;16.50;90.60
30534;DHT22;17318;52.390;9.754;2022-11-12T12:43:09;16.50;90.70
30534;DHT22;17318;52.390;9.754;2022-11-12T12:45:43;16.50;90.60
30534;DHT22;17318;52.390;9.754;2022-11-12T12:48:16;16.50;90.80
30534;DHT22;17318;52.390;9.754;2022-11-12T12:50:44;16.50;90.60
30534;DHT22;17318;52.390;9.754;2022-11-12T12:53:38;16.60;90.60
30534;DHT22;17318;52.390;9.754;2022-11-12T12:58:57;16.50;90.70
30534;DHT22;17318;52.390;9.754;2022-11-12T13:01:31;16.50;90.70
30534;DHT22;17318;52.390;9.754;2022-11-12T13:04:08;16.50;90.90
30534;DHT22;17318;52.390;9.754;2022-11-12T13:14:48;16.40;91.10
30534;DHT22;17318;52.390;9.754;2022-11-12T13:17:41;16.40;91.30
30534;DHT22;17318;52.390;9.754;2022-11-12T13:22:48;16.20;91.40
30534;DHT22;17318;52.390;9.754;2022-11-12T13:37:50;16.10;92.00
30534;DHT22;17318;52.390;9.754;2022-11-12T13:43:03;16.10;92.20
30534;DHT22;17318;52.390;9.754;2022-11-12T13:45:33;16.10;92.30
30534;DHT22;17318;52.390;9.754;2022-11-12T13:48:11;16.00;92.40
30534;DHT22;17318;52.390;9.754;2022-11-12T13:50:38;16.10;92.40
30534;DHT22;17318;52.390;9.754;2022-11-12T13:53:07;16.00;92.60
30534;DHT22;17318;52.390;9.754;2022-11-12T13:55:34;15.90;92.80
30534;DHT22;17318;52.390;9.754;2022-11-12T13:58:00;15.90;93.00
30534;DHT22;17318;52.390;9.754;2022-11-12T14:00:27;15.80;92.90
30534;DHT22;17318;52.390;9.754;2022-11-12T14:03:05;15.80;93.20
30534;DHT22;17318;52.390;9.754;2022-11-12T14:05:32;15.80;93.10
30534;DHT22;17318;52.390;9.754;2022-11-12T14:19:11;15.80;93.70
30534;DHT22;17318;52.390;9.754;2022-11-12T14:21:41;15.80;93.50
30534;DHT22;17318;52.390;9.754;2022-11-12T14:24:09;15.70;93.40
30534;DHT22;17318;52.390;9.754;2022-11-12T14:26:39;15.70;93.60
30534;DHT22;17318;52.390;9.754;2022-11-12T14:29:06;15.70;93.50
30534;DHT22;17318;52.390;9.754;2022-11-12T14:31:32;15.60;93.60
30534;DHT22;17318;52.390;9.754;2022-11-12T14:34:29;15.60;93.80
30534;DHT22;17318;52.390;9.754;2022-11-12T14:36:56;15.50;93.70
30534;DHT22;17318;52.390;9.754;2022-11-12T14:39:23;15.40;93.80
30534;DHT22;17318;52.390;9.754;2022-11-12T14:41:49;15.50;93.80
30534;DHT22;17318;52.390;9.754;2022-11-12T14:44:23;15.40;94.20
30534;DHT22;17318;52.390;9.754;2022-11-12T14:46:52;15.30;94.10
30534;DHT22;17318;52.390;9.754;2022-11-12T14:49:43;15.30;94.20
30534;DHT22;17318;52.390;9.754;2022-11-12T14:54:47;15.20;94.00
30534;DHT22;17318;52.390;9.754;2022-11-12T14:57:25;15.20;93.90
30534;DHT22;17318;52.390;9.754;2022-11-12T14:59:51;15.10;94.10
30534;DHT22;17318;52.390;9.754;2022-11-12T15:02:29;15.00;94.20
30534;DHT22;17318;52.390;9.754;2022-11-12T15:05:02;15.00;94.10
30534;DHT22;17318;52.390;9.754;2022-11-12T15:07:31;15.00;94.30
30534;DHT22;17318;52.390;9.754;2022-11-12T15:09:58;14.90;94.30
30534;DHT22;17318;52.390;9.754;2022-11-12T15:12:30;14.80;94.50
30534;DHT22;17318;52.390;9.754;2022-11-12T15:15:17;14.80;94.50
30534;DHT22;17318;52.390;9.754;2022-11-12T15:17:45;14.80;94.50
30534;DHT22;17318;52.390;9.754;2022-11-12T15:20:16;14.70;94.60
30534;DHT22;17318;52.390;9.754;2022-11-12T15:22:52;14.50;94.70
30534;DHT22;17318;52.390;9.754;2022-11-12T15:25:38;14.50;94.60
30534;DHT22;17318;52.390;9.754;2022-11-12T15:28:23;14.50;94.80
30534;DHT22;17318;52.390;9.754;2022-11-12T15:31:14;14.50;94.70
30534;DHT22;17318;52.390;9.754;2022-11-12T15:33:40;14.40;94.90
30534;DHT22;17318;52.390;9.754;2022-11-12T15:36:17;14.30;95.00
30534;DHT22;17318;52.390;9.754;2022-11-12T15:38:48;14.10;95.20
30534;DHT22;17318;52.390;9.754;2022-11-12T15:41:41;14.10;95.20
30534;DHT22;17318;52.390;9.754;2022-11-12T15:44:08;14.10;95.30
30534;DHT22;17318;52.390;9.754;2022-11-12T15:46:36;14.00;95.20
30534;DHT22;17318;52.390;9.754;2022-11-12T15:49:01;14.00;95.20
30534;DHT22;17318;52.390;9.754;2022-11-12T15:51:27;13.90;95.30
30534;DHT22;17318;52.390;9.754;2022-11-12T15:53:53;13.80;95.20
30534;DHT22;17318;52.390;9.754;2022-11-12T15:56:18;13.70;95.40
30534;DHT22;17318;52.390;9.754;2022-11-12T15:58:46;13.60;95.40
30534;DHT22;17318;52.390;9.754;2022-11-12T16:01:12;13.50;95.50
30534;DHT22;17318;52.390;9.754;2022-11-12T16:03:38;13.50;95.70
30534;DHT22;17318;52.390;9.754;2022-11-12T16:06:04;13.40;95.70
30534;DHT22;17318;52.390;9.754;2022-11-12T16:08:30;13.30;95.90
30534;DHT22;17318;52.390;9.754;2022-11-12T16:10:55;13.30;95.90
30534;DHT22;17318;52.390;9.754;2022-11-12T16:13:25;13.20;96.00
30534;DHT22;17318;52.390;9.754;2022-11-12T16:15:51;13.10;96.00
30534;DHT22;17318;52.390;9.754;2022-11-12T16:18:17;13.10;96.10
30534;DHT22;17318;52.390;9.754;2022-11-12T16:20:43;13.10;96.10
30534;DHT22;17318;52.390;9.754;2022-11-12T16:23:09;13.10;96.00
30534;DHT22;17318;52.390;9.754;2022-11-12T16:25:37;13.00;96.00
30534;DHT22;17318;52.390;9.754;2022-11-12T16:28:03;12.90;96.20
30534;DHT22;17318;52.390;9.754;2022-11-12T16:30:31;12.80;96.20
30534;DHT22;17318;52.390;9.754;2022-11-12T16:32:58;12.80;96.20
30534;DHT22;17318;52.390;9.754;2022-11-12T16:35:25;12.70;96.30
30534;DHT22;17318;52.390;9.754;2022-11-12T16:37:52;12.70;96.30
30534;DHT22;17318;52.390;9.754;2022-11-12T16:40:21;12.70;96.30
30534;DHT22;17318;52.390;9.754;2022-11-12T16:42:47;12.60;96.30
30534;DHT22;17318;52.390;9.754;2022-11-12T16:45:15;12.50;96.40
30534;DHT22;17318;52.390;9.754;2022-11-12T16:47:45;12.50;96.30
30534;DHT22;17318;52.390;9.754;2022-11-12T16:50:15;12.50;96.40
30534;DHT22;17318;52.390;9.754;2022-11-12T16:52:41;12.40;96.40
30534;DHT22;17318;52.390;9.754;2022-11-12T16:55:07;12.40;96.50
30534;DHT22;17318;52.390;9.754;2022-11-12T16:57:33;12.30;96.40
30534;DHT22;17318;52.390;9.754;2022-11-12T16:59:58;12.20;96.40
30534;DHT22;17318;52.390;9.754;2022-11-12T17:02:24;12.20;96.40
30534;DHT22;17318;52.390;9.754;2022-11-12T17:04:50;12.20;96.40
30534;DHT22;17318;52.390;9.754;2022-11-12T17:07:16;12.10;96.30
30534;DHT22;17318;52.390;9.754;2022-11-12T17:09:41;12.20;96.10
30534;DHT22;17318;52.390;9.754;2022-11-12T17:12:08;12.10;96.30
30534;DHT22;17318;52.390;9.754;2022-11-12T17:14:34;12.10;96.20
30534;DHT22;17318;52.390;9.754;2022-11-12T17:17:00;12.00;96.10
30534;DHT22;17318;52.390;9.754;2022-11-12T17:19:26;11.90;96.20
30534;DHT22;17318;52.390;9.754;2022-11-12T17:21:51;11.80;96.60
30534;DHT22;17318;52.390;9.754;2022-11-12T17:24:17;11.80;96.40
30534;DHT22;17318;52.390;9.754;2022-11-12T17:26:44;11.80;96.50
30534;DHT22;17318;52.390;9.754;2022-11-12T17:29:10;11.90;96.30
30534;DHT22;17318;52.390;9.754;2022-11-12T17:31:36;11.80;96.20
30534;DHT22;17318;52.390;9.754;2022-11-12T17:34:04;11.70;96.20
30534;DHT22;17318;52.390;9.754;2022-11-12T17:36:31;11.70;96.40
30534;DHT22;17318;52.390;9.754;2022-11-12T17:38:58;11.70;96.40